Ever Legacy — 9V9290 — position and weather

sailwx.info

Track history (hours):
 
Tides and Currents Weather Stations Pressure Air Temp Water Temp Dewpoint Dewpoint Depression Visibility Wind Speed Wind Dir Waves Ship Positions

Ever Legacy

Last reported at 2017-Dec-08 00:37 UTC. Time now 2017-Dec-14 00:13 UTC.
Position N 41°31' E 141°37'.

Length 335 m; draft 13.6 m.

Type: Ship (hazmat cat D). MMSI: 566853000.

Date/timePositionNaut miles runAvg speedWind from/ knotsBaromVisibWave heightAir tempDewpointWater temp
2017-Dec-08 00:37N 41°31' E 141°37'220.4
2017-Dec-08 00:31N 41°31' E 141°34'1020.4
2017-Dec-08 00:00N 41°33' E 141°20'1121.8
2017-Dec-07 23:30N 41°35' E 141°06'1021.3
2017-Dec-07 23:01N 41°37' E 140°52'1020.1
2017-Dec-07 22:30N 41°32' E 140°40'1020.1
2017-Dec-07 22:00N 41°26' E 140°29'1122.6
2017-Dec-07 21:30N 41°20' E 140°17'  
2017-Dec-03 10:57N 30°37' E 122°03'2 4.9
2017-Dec-03 10:30N 30°36' E 122°06'713.5
2017-Dec-03 10:00N 30°34' E 122°13'  
Track history (hours):
 
Tides and Currents Weather Stations Pressure Air Temp Water Temp Dewpoint Dewpoint Depression Visibility Wind Speed Wind Dir Waves Ship Positions

Ever Legacy

Last reported at 2017-Dec-08 00:37 UTC. Time now 2017-Dec-14 00:13 UTC.
Position N 41°31' E 141°37'.

Length 335 m; draft 13.6 m.

Type: Ship (hazmat cat D). MMSI: 566853000.

Date/timePositionNaut miles runAvg speedWind from/ knotsBaromVisibWave heightAir tempDewpointWater temp
2017-Dec-08 00:37N 41°31' E 141°37'220.4
2017-Dec-08 00:31N 41°31' E 141°34'1020.4
2017-Dec-08 00:00N 41°33' E 141°20'1121.8
2017-Dec-07 23:30N 41°35' E 141°06'1021.3
2017-Dec-07 23:01N 41°37' E 140°52'1020.1
2017-Dec-07 22:30N 41°32' E 140°40'1020.1
2017-Dec-07 22:00N 41°26' E 140°29'1122.6
2017-Dec-07 21:30N 41°20' E 140°17'  
2017-Dec-03 10:57N 30°37' E 122°03'2 4.9
2017-Dec-03 10:30N 30°36' E 122°06'713.5
2017-Dec-03 10:00N 30°34' E 122°13'  

Dump ship's entire track history